Time;durP1;ratioP1;P1;durP2;ratioP2;P2;SDS_P1;SDS_P2;PMS_P1;PMS_P2;Temp;Humidity;BMP_temperature;BMP_pressure;BME280_temperature;BME280_humidity;BME280_pressure;Samples;Min_cycle;Max_cycle;Signal;HPM_P1;HPM_P2
2021/12/04 00:01:52;;;;;;;41.40;29.00;;;4.90;99.90;;;;;;5063671;28;20041;-65
2021/12/04 00:04:30;;;;;;;41.28;28.90;;;4.90;99.90;;;;;;5063269;28;20466;-65
2021/12/04 00:06:56;;;;;;;46.40;30.25;;;4.90;99.90;;;;;;5064008;28;20048;-65
2021/12/04 00:09:22;;;;;;;46.55;29.65;;;4.90;99.90;;;;;;5063758;28;20041;-65
2021/12/04 00:11:55;;;;;;;44.45;29.40;;;4.80;99.90;;;;;;5062224;28;20045;-65
2021/12/04 00:14:21;;;;;;;47.38;30.38;;;4.90;99.90;;;;;;5062965;28;20048;-65
2021/12/04 00:16:47;;;;;;;45.38;28.90;;;4.80;99.90;;;;;;5064389;28;20048;-65
2021/12/04 00:19:13;;;;;;;44.20;29.50;;;4.80;99.90;;;;;;5065014;28;20051;-65
2021/12/04 00:21:39;;;;;;;45.08;29.15;;;4.80;99.90;;;;;;5076351;28;20487;-65
2021/12/04 00:24:05;;;;;;;40.38;27.60;;;4.80;99.90;;;;;;5065959;28;20072;-65
2021/12/04 00:26:30;;;;;;;43.85;28.27;;;4.90;99.90;;;;;;5078153;28;20044;-65
2021/12/04 00:28:56;;;;;;;45.70;28.45;;;4.80;99.90;;;;;;5062894;28;20040;-65
2021/12/04 00:31:22;;;;;;;42.25;28.58;;;4.80;99.90;;;;;;5064862;28;20094;-65
2021/12/04 00:33:49;;;;;;;45.95;28.33;;;4.80;99.90;;;;;;5061985;28;20162;-65
2021/12/04 00:36:44;;;;;;;45.70;29.20;;;4.80;99.90;;;;;;5064134;28;20497;-65
2021/12/04 00:50:09;;;;;;;47.42;29.83;;;4.80;99.90;;;;;;5063110;28;20053;-65
2021/12/04 00:52:35;;;;;;;47.10;28.23;;;4.80;99.90;;;;;;5092251;28;20049;-65
2021/12/04 00:55:03;;;;;;;48.95;29.23;;;4.80;99.90;;;;;;5061511;28;20043;-65
2021/12/04 00:57:29;;;;;;;47.67;28.27;;;4.80;99.90;;;;;;5089453;28;20087;-65
2021/12/04 00:59:54;;;;;;;54.65;30.05;;;4.80;99.90;;;;;;5061274;28;20175;-65
2021/12/04 01:02:20;;;;;;;46.97;29.17;;;4.80;99.90;;;;;;5060954;28;20056;-65
2021/12/04 01:04:46;;;;;;;53.13;30.90;;;4.80;99.90;;;;;;5058833;28;20135;-65
2021/12/04 01:07:13;;;;;;;57.63;31.38;;;4.80;99.90;;;;;;5059790;28;20037;-65
2021/12/04 01:09:39;;;;;;;61.50;31.13;;;4.80;99.90;;;;;;5060666;28;20037;-65
2021/12/04 01:12:06;;;;;;;55.97;30.45;;;4.80;99.90;;;;;;5059462;28;20048;-65
2021/12/04 01:14:32;;;;;;;61.15;30.67;;;4.80;99.90;;;;;;5060767;28;21487;-65
2021/12/04 01:16:59;;;;;;;60.60;29.05;;;4.80;99.90;;;;;;5060569;28;20045;-65
2021/12/04 01:19:25;;;;;;;65.63;30.73;;;4.80;99.90;;;;;;5059313;28;20066;-65
2021/12/04 01:21:52;;;;;;;62.58;31.95;;;4.70;99.90;;;;;;5061070;28;20048;-65
2021/12/04 01:24:19;;;;;;;64.47;29.33;;;4.80;99.90;;;;;;5089172;28;20044;-65
2021/12/04 01:26:47;;;;;;;59.80;28.58;;;4.80;99.90;;;;;;5060544;28;20052;-65
2021/12/04 01:29:13;;;;;;;63.35;30.40;;;4.70;99.90;;;;;;5059016;28;20040;-65
2021/12/04 01:31:39;;;;;;;66.03;30.95;;;4.70;99.90;;;;;;5057360;28;20059;-65
2021/12/04 01:34:05;;;;;;;55.50;28.48;;;4.70;99.90;;;;;;5057671;28;20455;-65
2021/12/04 01:36:30;;;;;;;64.97;30.70;;;4.70;99.90;;;;;;5059019;28;20055;-65
2021/12/04 01:38:56;;;;;;;50.42;26.85;;;4.70;99.90;;;;;;5056911;28;20041;-65
2021/12/04 01:41:22;;;;;;;54.00;27.05;;;4.70;99.90;;;;;;5055724;28;20037;-65
2021/12/04 01:43:48;;;;;;;48.58;25.60;;;4.70;99.90;;;;;;5058217;28;20037;-65
2021/12/04 01:46:15;;;;;;;45.03;25.73;;;4.70;99.90;;;;;;5059558;28;20064;-65
2021/12/04 01:48:41;;;;;;;36.45;22.75;;;4.70;99.90;;;;;;5058826;28;20033;-65
2021/12/04 01:51:06;;;;;;;41.72;24.00;;;4.70;99.90;;;;;;5059351;28;20055;-65
2021/12/04 01:53:32;;;;;;;35.08;22.98;;;4.70;99.90;;;;;;5059242;28;20528;-65
2021/12/04 01:55:59;;;;;;;34.80;22.60;;;4.70;99.90;;;;;;5060598;28;20450;-65
2021/12/04 01:58:27;;;;;;;30.48;22.48;;;4.70;99.90;;;;;;5058386;28;20064;-65
2021/12/04 02:00:53;;;;;;;29.67;20.73;;;4.70;99.90;;;;;;5091538;28;20090;-65
2021/12/04 02:03:20;;;;;;;29.58;20.77;;;4.70;99.90;;;;;;5060451;28;20414;-65
2021/12/04 02:05:47;;;;;;;24.05;19.67;;;4.70;99.90;;;;;;5090592;28;20044;-65
2021/12/04 02:08:15;;;;;;;25.80;20.83;;;4.70;99.90;;;;;;5058586;28;20502;-65
2021/12/04 02:10:42;;;;;;;24.92;19.40;;;4.70;99.90;;;;;;5090908;28;20040;-65
2021/12/04 02:13:08;;;;;;;26.58;18.92;;;4.70;99.90;;;;;;5059364;28;20057;-65
2021/12/04 02:15:34;;;;;;;24.55;19.08;;;4.70;99.90;;;;;;5061538;28;20087;-65
2021/12/04 02:18:02;;;;;;;23.17;17.95;;;4.80;99.90;;;;;;5061030;28;20071;-65
2021/12/04 02:20:32;;;;;;;22.95;18.45;;;4.80;99.90;;;;;;5060446;28;20405;-65
2021/12/04 02:22:58;;;;;;;21.15;18.63;;;4.70;99.90;;;;;;5060090;28;20063;-65
2021/12/04 02:25:23;;;;;;;21.70;17.63;;;4.80;99.90;;;;;;5057962;28;20453;-65
2021/12/04 02:27:50;;;;;;;22.27;18.45;;;4.80;99.90;;;;;;5059409;28;20632;-65
2021/12/04 02:30:19;;;;;;;21.85;18.00;;;4.80;99.90;;;;;;5090640;28;20048;-65
2021/12/04 02:32:45;;;;;;;21.83;18.13;;;4.80;99.90;;;;;;5059062;28;20052;-65
2021/12/04 02:35:11;;;;;;;20.85;17.15;;;4.70;99.90;;;;;;5059531;28;20062;-65
2021/12/04 02:37:39;;;;;;;18.90;16.65;;;4.80;99.90;;;;;;5060174;28;20036;-65
2021/12/04 02:40:07;;;;;;;19.02;16.90;;;4.80;99.90;;;;;;5059880;28;20483;-65
2021/12/04 02:42:33;;;;;;;19.13;16.58;;;4.80;99.90;;;;;;5058124;28;20036;-65
2021/12/04 02:45:01;;;;;;;20.40;17.45;;;4.80;99.90;;;;;;5062802;28;20040;-65
2021/12/04 02:47:28;;;;;;;19.23;17.20;;;4.80;99.90;;;;;;5063040;28;20039;-65
2021/12/04 02:49:55;;;;;;;18.48;16.58;;;4.80;99.90;;;;;;5062800;28;20033;-65
2021/12/04 02:52:22;;;;;;;20.77;16.73;;;4.80;99.90;;;;;;5065099;28;20036;-65
2021/12/04 02:54:49;;;;;;;19.88;17.83;;;4.80;99.90;;;;;;5081482;28;20036;-65
2021/12/04 02:57:17;;;;;;;20.33;18.15;;;4.80;99.90;;;;;;5065938;28;20440;-65
2021/12/04 02:59:44;;;;;;;20.20;17.23;;;4.80;99.90;;;;;;5060559;28;20093;-65
2021/12/04 03:02:22;;;;;;;19.30;17.05;;;4.80;99.90;;;;;;5063651;28;20036;-65
2021/12/04 03:04:50;;;;;;;20.77;18.02;;;4.80;99.90;;;;;;5064637;28;20091;-65
2021/12/04 03:07:16;;;;;;;20.52;17.30;;;4.80;99.90;;;;;;5062289;28;20522;-65
2021/12/04 03:09:42;;;;;;;21.17;18.20;;;4.80;99.90;;;;;;5062469;28;20051;-65
2021/12/04 03:12:09;;;;;;;21.30;17.92;;;4.70;99.90;;;;;;5063463;28;20041;-65
2021/12/04 03:14:35;;;;;;;21.45;17.50;;;4.70;99.90;;;;;;5063781;28;20064;-65
2021/12/04 03:17:02;;;;;;;20.00;17.60;;;4.70;99.90;;;;;;5063484;28;20152;-65
2021/12/04 03:19:27;;;;;;;19.65;16.13;;;4.70;99.90;;;;;;5064017;28;20601;-65
2021/12/04 03:21:55;;;;;;;21.52;17.52;;;4.80;99.90;;;;;;5064121;28;20052;-65
2021/12/04 03:24:23;;;;;;;23.95;16.48;;;4.70;99.90;;;;;;5062607;28;20095;-65
2021/12/04 03:26:50;;;;;;;23.27;17.38;;;4.80;99.90;;;;;;5061992;28;20044;-65
2021/12/04 03:29:19;;;;;;;20.15;16.00;;;4.70;99.90;;;;;;5093461;28;20036;-65
2021/12/04 03:40:09;;;;;;;20.95;17.65;;;4.70;99.90;;;;;;5066986;28;20052;-65
2021/12/04 03:42:36;;;;;;;22.02;16.88;;;4.70;99.90;;;;;;5065381;28;21532;-65
2021/12/04 03:45:03;;;;;;;21.65;17.13;;;4.60;99.90;;;;;;5065453;28;20031;-65
2021/12/04 03:47:30;;;;;;;24.02;17.98;;;4.70;99.90;;;;;;5066482;28;20462;-65
2021/12/04 03:49:56;;;;;;;27.23;18.25;;;4.70;99.90;;;;;;5066148;28;20525;-65
2021/12/04 03:52:21;;;;;;;24.90;17.58;;;4.70;99.90;;;;;;5065273;28;20064;-65
2021/12/04 03:54:47;;;;;;;28.58;18.00;;;4.70;99.90;;;;;;5066117;28;20468;-65
2021/12/04 03:57:13;;;;;;;23.40;17.20;;;4.70;99.90;;;;;;5065126;28;20033;-65
2021/12/04 03:59:41;;;;;;;25.65;16.65;;;4.60;99.90;;;;;;5067558;28;20051;-65
2021/12/04 04:02:11;;;;;;;28.55;17.33;;;4.70;99.90;;;;;;5065770;28;20396;-65
2021/12/04 04:04:37;;;;;;;25.55;17.88;;;4.70;99.90;;;;;;5095396;28;21014;-65
2021/12/04 04:07:04;;;;;;;29.00;17.05;;;4.60;99.90;;;;;;5063541;28;20039;-65
2021/12/04 04:09:30;;;;;;;30.00;19.42;;;4.70;99.90;;;;;;5063369;28;20037;-65
2021/12/04 04:11:57;;;;;;;27.25;17.35;;;4.70;99.90;;;;;;5062215;28;20050;-65
2021/12/04 04:14:24;;;;;;;30.00;18.30;;;4.70;99.90;;;;;;5095800;28;20126;-65
2021/12/04 04:16:51;;;;;;;34.75;19.55;;;4.70;99.90;;;;;;5064010;28;20051;-65
2021/12/04 04:19:16;;;;;;;28.80;19.02;;;4.60;99.90;;;;;;5064712;28;20045;-65
2021/12/04 04:21:42;;;;;;;28.52;18.52;;;4.70;99.90;;;;;;5065996;28;20383;-65
2021/12/04 04:24:17;;;;;;;30.60;17.63;;;4.70;99.90;;;;;;5064844;28;20433;-65
2021/12/04 04:26:44;;;;;;;30.33;18.20;;;4.60;99.90;;;;;;5064274;28;20048;-65
2021/12/04 04:29:11;;;;;;;30.35;17.92;;;4.70;99.90;;;;;;5062463;28;20696;-65
2021/12/04 04:31:45;;;;;;;29.25;18.63;;;4.70;99.90;;;;;;5063481;28;20036;-65
2021/12/04 04:34:12;;;;;;;27.20;18.08;;;4.70;99.90;;;;;;5066104;28;20032;-65
2021/12/04 04:39:26;;;;;;;27.63;17.20;;;4.70;99.90;;;;;;5065187;28;20048;-65
2021/12/04 04:58:50;;;;;;;24.38;17.35;;;4.80;99.90;;;;;;5064412;28;20044;-65
2021/12/04 05:12:02;;;;;;;21.15;15.23;;;4.80;99.90;;;;;;5065260;28;20060;-65
2021/12/04 05:14:28;;;;;;;19.85;15.73;;;4.80;99.90;;;;;;5064304;28;20120;-65
2021/12/04 05:17:13;;;;;;;21.77;16.20;;;4.80;99.90;;;;;;5063340;28;20043;-65
2021/12/04 05:19:55;;;;;;;22.10;16.40;;;4.80;99.90;;;;;;5061309;28;20098;-65
2021/12/04 05:22:21;;;;;;;23.80;15.93;;;4.80;99.90;;;;;;5063918;28;20036;-65
2021/12/04 05:24:47;;;;;;;18.50;14.95;;;4.80;99.90;;;;;;5060803;28;20135;-65
2021/12/04 05:27:14;;;;;;;24.20;15.68;;;4.80;99.90;;;;;;5064817;28;20131;-65
2021/12/04 05:29:40;;;;;;;23.10;15.57;;;4.80;99.90;;;;;;5065500;28;20047;-65
2021/12/04 05:32:07;;;;;;;21.20;16.80;;;4.90;99.90;;;;;;5063149;28;20098;-65
2021/12/04 05:34:33;;;;;;;22.80;16.13;;;4.80;99.90;;;;;;5063737;28;20044;-65
2021/12/04 05:36:59;;;;;;;23.08;15.57;;;4.80;99.90;;;;;;5064043;28;20456;-65
2021/12/04 05:39:26;;;;;;;22.00;16.70;;;4.80;99.90;;;;;;5061704;28;20140;-65
2021/12/04 05:41:52;;;;;;;24.10;16.55;;;4.80;99.90;;;;;;5090665;28;20086;-65
2021/12/04 05:44:21;;;;;;;26.77;17.55;;;4.80;99.90;;;;;;5063195;28;20091;-65
2021/12/04 05:46:54;;;;;;;24.55;16.48;;;4.80;99.90;;;;;;5062359;28;20053;-65
2021/12/04 05:49:26;;;;;;;29.80;16.65;;;4.80;99.90;;;;;;5063516;28;20080;-65
2021/12/04 05:52:07;;;;;;;22.80;15.48;;;4.80;99.90;;;;;;5064027;28;20048;-65
2021/12/04 05:56:58;;;;;;;23.20;16.25;;;4.70;99.90;;;;;;5062238;28;20058;-65
2021/12/04 05:59:24;;;;;;;24.75;16.13;;;4.80;99.90;;;;;;5065315;28;20037;-65
2021/12/04 06:01:50;;;;;;;23.02;16.63;;;4.80;99.90;;;;;;5065715;28;20075;-65
2021/12/04 06:04:16;;;;;;;22.38;16.92;;;4.80;99.90;;;;;;5064310;28;20042;-65
2021/12/04 06:06:43;;;;;;;20.88;16.33;;;4.80;99.90;;;;;;5062704;28;20063;-65
2021/12/04 06:09:09;;;;;;;25.33;16.40;;;4.80;99.90;;;;;;5059834;28;20044;-65
2021/12/04 06:11:36;;;;;;;20.35;16.73;;;4.80;99.90;;;;;;5059971;28;20253;-65
2021/12/04 06:14:02;;;;;;;21.77;16.13;;;4.80;99.90;;;;;;5059557;28;20628;-65
2021/12/04 06:16:28;;;;;;;21.35;15.25;;;4.80;99.90;;;;;;5059817;28;20447;-65
2021/12/04 06:18:55;;;;;;;25.77;16.38;;;4.80;99.90;;;;;;5059070;28;20135;-65
2021/12/04 06:24:06;;;;;;;26.10;17.10;;;4.70;99.90;;;;;;5062367;28;20581;-65
2021/12/04 06:26:33;;;;;;;26.38;17.30;;;4.70;99.90;;;;;;5062759;28;20053;-65
2021/12/04 06:29:00;;;;;;;28.02;17.77;;;4.70;99.90;;;;;;5064066;28;20039;-65
2021/12/04 06:31:26;;;;;;;25.70;16.63;;;4.70;99.90;;;;;;5065041;28;20086;-65
2021/12/04 06:33:52;;;;;;;28.55;18.23;;;4.70;99.90;;;;;;5091641;28;20049;-65
2021/12/04 06:36:18;;;;;;;24.05;17.63;;;4.70;99.90;;;;;;5062760;28;20043;-65
2021/12/04 06:38:44;;;;;;;26.33;18.50;;;4.70;99.90;;;;;;5061210;28;20037;-65
2021/12/04 06:41:10;;;;;;;29.75;18.30;;;4.70;99.90;;;;;;5062688;28;20464;-65
2021/12/04 06:43:39;;;;;;;32.95;18.58;;;4.70;99.90;;;;;;5063768;28;20124;-65
2021/12/04 06:46:06;;;;;;;32.38;18.95;;;4.80;99.90;;;;;;5061466;28;20044;-65
2021/12/04 06:51:33;;;;;;;33.38;18.33;;;4.80;99.90;;;;;;5062955;28;20139;-65
2021/12/04 06:56:31;;;;;;;30.88;19.10;;;4.80;99.90;;;;;;5063518;28;20045;-65
2021/12/04 06:58:57;;;;;;;31.83;19.13;;;4.80;99.90;;;;;;5061035;28;20082;-65
2021/12/04 07:01:23;;;;;;;34.53;18.85;;;4.70;99.90;;;;;;5092229;28;20044;-65
2021/12/04 07:03:51;;;;;;;38.72;18.63;;;4.80;99.90;;;;;;5063885;28;20032;-65
2021/12/04 07:06:16;;;;;;;35.47;18.35;;;4.80;99.90;;;;;;5063568;28;20059;-65
2021/12/04 07:08:42;;;;;;;38.33;19.77;;;4.70;99.90;;;;;;5063691;28;21534;-65
2021/12/04 07:11:07;;;;;;;37.83;18.83;;;4.80;99.90;;;;;;5062429;28;20086;-65
2021/12/04 07:13:33;;;;;;;42.58;20.52;;;4.80;99.90;;;;;;5093787;28;20051;-65
2021/12/04 07:16:07;;;;;;;43.55;20.63;;;4.70;99.90;;;;;;5063896;28;20050;-65
2021/12/04 07:18:35;;;;;;;45.05;20.58;;;4.70;99.90;;;;;;5061850;28;20620;-65
2021/12/04 07:21:02;;;;;;;44.92;19.98;;;4.70;99.90;;;;;;5062284;28;20123;-65
2021/12/04 07:23:28;;;;;;;50.85;22.02;;;4.80;99.90;;;;;;5062316;28;20059;-65
2021/12/04 07:25:54;;;;;;;54.13;21.40;;;4.70;99.90;;;;;;5063373;28;20398;-65
2021/12/04 07:28:20;;;;;;;55.00;19.48;;;4.70;99.90;;;;;;5062588;28;20038;-65
2021/12/04 07:30:46;;;;;;;44.60;19.58;;;4.70;99.90;;;;;;5061477;28;20489;-65
2021/12/04 07:33:12;;;;;;;53.22;20.45;;;4.70;99.90;;;;;;5062263;28;20050;-65
2021/12/04 07:35:37;;;;;;;41.40;19.13;;;4.70;99.90;;;;;;5047412;28;20376;-65
2021/12/04 07:38:04;;;;;;;57.53;20.73;;;4.70;99.90;;;;;;5061708;28;21438;-65
2021/12/04 07:40:30;;;;;;;47.72;19.42;;;4.70;99.90;;;;;;5061616;28;20051;-65
2021/12/04 07:42:56;;;;;;;58.70;20.45;;;4.70;99.90;;;;;;5062831;28;20056;-65
2021/12/04 07:45:22;;;;;;;55.63;20.05;;;4.70;99.90;;;;;;5063086;28;20028;-65
2021/12/04 07:47:48;;;;;;;47.80;19.52;;;4.70;99.90;;;;;;5060610;28;20040;-65
2021/12/04 07:50:14;;;;;;;42.78;18.63;;;4.70;99.90;;;;;;5062212;28;20607;-65
2021/12/04 07:52:40;;;;;;;54.92;19.83;;;4.70;99.90;;;;;;5059188;28;20055;-65
2021/12/04 07:55:09;;;;;;;37.80;17.33;;;4.70;99.90;;;;;;5060619;28;20044;-65
2021/12/04 07:57:36;;;;;;;42.78;18.55;;;4.70;99.90;;;;;;5059784;28;20122;-65
2021/12/04 08:00:07;;;;;;;48.28;18.98;;;4.70;99.90;;;;;;5059243;28;20052;-65
2021/12/04 08:02:33;;;;;;;35.42;16.75;;;4.70;99.90;;;;;;5092954;27;20044;-65
2021/12/04 08:04:59;;;;;;;22.25;13.73;;;4.70;99.90;;;;;;5062589;28;20613;-65
2021/12/04 08:07:24;;;;;;;23.65;13.73;;;4.70;99.90;;;;;;5060687;28;20040;-65
2021/12/04 08:09:50;;;;;;;21.35;12.75;;;4.70;99.90;;;;;;5094203;28;20036;-65
2021/12/04 08:12:16;;;;;;;20.60;12.27;;;4.70;99.90;;;;;;5059584;28;20040;-65
2021/12/04 08:14:42;;;;;;;16.35;11.68;;;4.70;99.90;;;;;;5059467;28;20123;-64
2021/12/04 08:17:08;;;;;;;15.38;11.63;;;4.70;99.90;;;;;;5059624;28;20040;-65
2021/12/04 08:19:34;;;;;;;15.73;11.73;;;4.70;99.90;;;;;;5061392;28;20037;-65
2021/12/04 08:21:59;;;;;;;15.88;11.45;;;4.70;99.90;;;;;;5063741;28;20045;-65
2021/12/04 08:24:25;;;;;;;13.95;11.27;;;4.70;99.90;;;;;;5061845;28;20553;-65
2021/12/04 08:26:51;;;;;;;12.57;11.20;;;4.70;99.90;;;;;;5060998;28;20044;-65
2021/12/04 08:29:16;;;;;;;12.70;10.48;;;4.70;99.90;;;;;;5056254;28;20041;-65
2021/12/04 08:31:42;;;;;;;15.25;11.25;;;4.70;99.90;;;;;;5061189;28;20086;-65
2021/12/04 08:34:09;;;;;;;13.80;10.40;;;4.80;99.90;;;;;;5060386;28;20048;-65
2021/12/04 08:36:35;;;;;;;17.65;11.88;;;4.80;99.90;;;;;;5060918;28;20447;-65
2021/12/04 08:39:04;;;;;;;14.35;12.02;;;4.80;99.90;;;;;;5061926;28;20083;-65
2021/12/04 08:41:30;;;;;;;15.00;11.93;;;4.80;99.90;;;;;;5059777;28;20040;-65
2021/12/04 08:43:56;;;;;;;26.17;14.20;;;4.80;99.90;;;;;;5092216;28;20045;-64
2021/12/04 08:46:23;;;;;;;17.45;14.02;;;4.80;99.90;;;;;;5061767;28;20541;-65
2021/12/04 08:48:51;;;;;;;14.32;12.27;;;4.80;99.90;;;;;;5060835;28;20450;-63
2021/12/04 08:51:21;;;;;;;14.32;12.20;;;4.90;99.90;;;;;;5061491;28;20045;-65
2021/12/04 08:53:49;;;;;;;20.70;13.75;;;5.30;99.90;;;;;;5061804;28;20048;-65
2021/12/04 08:56:15;;;;;;;17.20;13.63;;;4.90;99.90;;;;;;5061871;28;20074;-65
2021/12/04 08:58:42;;;;;;;18.17;14.55;;;4.90;99.90;;;;;;5062616;28;20052;-65
2021/12/04 09:01:13;;;;;;;18.50;13.57;;;4.90;99.90;;;;;;5062426;28;20123;-65
2021/12/04 09:03:47;;;;;;;21.60;14.45;;;4.90;99.90;;;;;;5061173;28;20367;-65
2021/12/04 09:06:14;;;;;;;17.88;14.15;;;5.00;99.90;;;;;;5092743;27;20040;-66
2021/12/04 09:08:40;;;;;;;22.02;14.27;;;4.90;99.90;;;;;;5065510;28;20055;-65
2021/12/04 09:11:12;;;;;;;17.80;13.85;;;4.90;99.90;;;;;;5062573;28;20036;-65
2021/12/04 09:13:38;;;;;;;18.85;13.90;;;4.90;99.90;;;;;;5065234;28;20129;-65
2021/12/04 09:16:06;;;;;;;22.70;15.50;;;5.00;99.90;;;;;;5061492;28;20053;-66
2021/12/04 09:18:32;;;;;;;21.02;15.20;;;4.90;99.90;;;;;;5053216;28;20062;-65
2021/12/04 09:20:57;;;;;;;24.92;15.43;;;5.00;99.90;;;;;;5043448;28;20632;-65
2021/12/04 09:23:29;;;;;;;23.92;16.02;;;5.00;99.90;;;;;;5059906;28;20052;-65
2021/12/04 09:25:59;;;;;;;21.35;16.17;;;5.00;99.90;;;;;;5061326;28;20047;-66
2021/12/04 09:28:41;;;;;;;24.73;16.30;;;5.00;99.90;;;;;;5057898;28;20079;-65
2021/12/04 09:34:06;;;;;;;29.60;16.63;;;5.00;99.90;;;;;;5064526;28;20056;-65
2021/12/04 09:37:01;;;;;;;29.42;17.42;;;5.10;99.90;;;;;;5062541;28;20123;-65
2021/12/04 10:01:55;;;;;;;27.00;16.25;;;5.10;99.90;;;;;;5065722;28;20131;-65
2021/12/04 10:33:58;;;;;;;26.35;16.30;;;5.40;99.90;;;;;;5062714;28;20048;-65
2021/12/04 10:36:40;;;;;;;23.63;16.17;;;5.30;99.90;;;;;;5062892;28;20040;-65
2021/12/04 10:39:09;;;;;;;23.73;14.93;;;5.30;99.90;;;;;;5061015;28;20060;-65
2021/12/04 10:41:42;;;;;;;23.42;15.65;;;5.40;99.90;;;;;;5054795;28;20093;-65
2021/12/04 10:44:18;;;;;;;21.75;14.73;;;5.40;99.90;;;;;;5057671;28;20154;-65
2021/12/04 10:46:54;;;;;;;;;;;5.40;99.90;;;;;;5040384;28;20051;-65
2021/12/04 10:55:18;;;;;;;25.52;15.88;;;5.40;99.90;;;;;;5061780;28;20072;-65
2021/12/04 11:03:05;;;;;;;26.45;17.38;;;5.30;99.90;;;;;;5061546;28;20418;-65
2021/12/04 11:27:51;;;;;;;31.90;18.33;;;5.40;99.90;;;;;;5063916;28;20585;-66
2021/12/04 11:36:14;;;;;;;32.33;18.33;;;5.40;99.90;;;;;;5063544;28;20044;-66
2021/12/04 11:43:53;;;;;;;36.47;18.80;;;5.40;99.90;;;;;;5063025;28;20056;-66
2021/12/04 11:46:24;;;;;;;31.65;17.80;;;5.40;99.90;;;;;;5062954;28;20048;-65
2021/12/04 11:48:51;;;;;;;33.78;19.88;;;5.40;99.90;;;;;;5066737;28;20086;-65
2021/12/04 11:51:24;;;;;;;30.50;19.23;;;5.40;99.90;;;;;;5062827;28;20130;-66
2021/12/04 11:53:51;;;;;;;30.15;18.95;;;5.40;99.90;;;;;;5062767;28;20518;-65
2021/12/04 11:56:22;;;;;;;34.78;19.98;;;5.40;99.90;;;;;;5078273;28;20407;-66
2021/12/04 11:58:49;;;;;;;39.08;21.27;;;5.40;99.90;;;;;;5063106;28;20475;-66
2021/12/04 12:01:28;;;;;;;36.20;20.20;;;5.40;99.90;;;;;;5067092;28;20083;-65
2021/12/04 12:03:56;;;;;;;43.28;21.98;;;5.40;99.90;;;;;;5066633;28;20502;-65
2021/12/04 12:06:42;;;;;;;35.45;21.27;;;5.40;99.90;;;;;;5068120;28;20501;-66
2021/12/04 12:09:18;;;;;;;36.50;21.13;;;5.40;99.90;;;;;;5062986;28;20475;-66
2021/12/04 12:12:01;;;;;;;47.03;22.88;;;5.50;99.90;;;;;;5065483;28;20041;-66
2021/12/04 12:15:03;;;;;;;43.08;22.88;;;5.50;99.90;;;;;;5065011;28;20093;-66
2021/12/04 12:17:32;;;;;;;43.65;22.88;;;5.50;99.90;;;;;;5061377;28;20077;-66
2021/12/04 12:19:59;;;;;;;54.13;24.83;;;5.50;99.90;;;;;;5065795;28;20106;-66
2021/12/04 12:22:46;;;;;;;49.20;24.50;;;5.60;99.90;;;;;;5091682;28;20051;-67
2021/12/04 12:36:19;;;;;;;59.20;25.58;;;5.50;99.90;;;;;;5064506;28;20182;-66
2021/12/04 12:38:56;;;;;;;66.70;27.27;;;5.50;99.90;;;;;;5060998;28;20066;-66
2021/12/04 12:41:22;;;;;;;50.25;25.90;;;5.40;99.90;;;;;;5060348;28;20041;-66
2021/12/04 12:44:08;;;;;;;48.13;23.02;;;5.50;99.90;;;;;;5043349;28;20079;-66
2021/12/04 12:46:54;;;;;;;50.95;23.35;;;5.40;99.90;;;;;;5060040;28;20399;-66
2021/12/04 12:49:33;;;;;;;52.20;25.15;;;5.50;99.90;;;;;;5049414;28;20050;-66
2021/12/04 12:52:07;;;;;;;51.30;25.42;;;5.40;99.90;;;;;;5048158;28;20094;-66
2021/12/04 12:54:55;;;;;;;52.22;26.73;;;5.40;99.90;;;;;;5049977;28;20056;-66
2021/12/04 12:57:28;;;;;;;56.13;27.30;;;5.50;99.90;;;;;;5051662;28;20036;-63
2021/12/04 13:14:25;;;;;;;52.80;24.58;;;5.50;99.90;;;;;;5060989;28;20044;-63
2021/12/04 13:17:11;;;;;;;47.55;24.77;;;5.50;99.90;;;;;;5090614;27;21183;-63
2021/12/04 13:19:41;;;;;;;47.42;25.92;;;5.50;99.90;;;;;;5062391;28;20036;-64
2021/12/04 13:22:14;;;;;;;56.78;26.92;;;5.50;99.90;;;;;;5061886;28;20406;-63
2021/12/04 13:24:41;;;;;;;49.25;27.95;;;5.60;99.90;;;;;;5064084;28;20037;-64
2021/12/04 13:29:59;;;;;;;61.40;30.88;;;5.50;99.90;;;;;;5065656;28;20053;-65
2021/12/04 13:32:38;;;;;;;68.80;32.17;;;5.50;99.90;;;;;;5060810;28;20055;-66
2021/12/04 13:35:17;;;;;;;65.45;31.70;;;5.50;99.90;;;;;;5065224;28;20473;-66
2021/12/04 13:37:44;;;;;;;71.30;34.50;;;5.50;99.90;;;;;;5074423;28;20076;-65
2021/12/04 13:40:14;;;;;;;74.75;35.50;;;5.50;99.90;;;;;;5062305;28;20052;-66
2021/12/04 13:42:41;;;;;;;72.03;35.78;;;5.50;99.90;;;;;;5061571;28;20433;-66
2021/12/04 13:45:11;;;;;;;85.43;37.55;;;5.40;99.90;;;;;;5062630;28;20163;-66
2021/12/04 13:47:38;;;;;;;85.90;38.67;;;5.50;99.90;;;;;;5062577;28;20055;-66
2021/12/04 13:50:20;;;;;;;89.25;38.92;;;5.50;99.90;;;;;;5063738;28;20094;-66
2021/12/04 13:52:46;;;;;;;101.32;41.88;;;5.50;99.90;;;;;;5091500;27;20052;-66
2021/12/04 13:55:14;;;;;;;87.43;39.20;;;5.40;99.90;;;;;;5062350;28;20040;-66
2021/12/04 13:57:41;;;;;;;96.95;40.47;;;5.40;99.90;;;;;;5056987;28;21929;-66
2021/12/04 14:00:10;;;;;;;109.78;43.10;;;5.40;99.90;;;;;;5062610;28;20044;-66
2021/12/04 14:02:36;;;;;;;90.85;39.90;;;5.40;99.90;;;;;;5090895;28;20059;-66
2021/12/04 14:05:17;;;;;;;95.43;41.30;;;5.40;99.90;;;;;;5044516;28;20781;-66
2021/12/04 14:07:53;;;;;;;85.75;40.70;;;5.40;99.90;;;;;;5052026;28;20076;-66
2021/12/04 14:10:22;;;;;;;84.38;40.22;;;5.40;99.90;;;;;;5055567;28;20399;-66
2021/12/04 14:12:48;;;;;;;82.60;40.03;;;5.40;99.90;;;;;;5051421;28;20044;-66
2021/12/04 14:15:17;;;;;;;84.78;40.72;;;5.40;99.90;;;;;;5053596;28;21470;-66
2021/12/04 14:17:43;;;;;;;90.97;41.70;;;5.50;99.90;;;;;;5050272;28;20045;-66
2021/12/04 14:20:12;;;;;;;108.60;44.47;;;5.40;99.90;;;;;;5053198;28;20098;-66
2021/12/04 14:22:50;;;;;;;90.20;40.72;;;5.40;99.90;;;;;;5055782;28;20583;-67
2021/12/04 14:25:17;;;;;;;93.03;41.65;;;5.40;99.90;;;;;;5049055;28;20135;-66
2021/12/04 14:27:44;;;;;;;95.68;42.58;;;5.40;99.90;;;;;;5048186;28;20098;-66
2021/12/04 14:30:32;;;;;;;97.38;40.97;;;5.50;99.90;;;;;;5051198;28;20051;-66
2021/12/04 14:33:01;;;;;;;108.32;45.65;;;5.40;99.90;;;;;;5064987;28;20176;-66
2021/12/04 14:35:40;;;;;;;84.82;40.85;;;5.40;99.90;;;;;;5051579;28;20510;-66
2021/12/04 14:38:11;;;;;;;88.18;42.50;;;5.40;99.90;;;;;;5056530;28;20044;-66
2021/12/04 14:41:10;;;;;;;79.43;40.08;;;5.40;99.90;;;;;;5058391;28;20044;-66
2021/12/04 14:43:39;;;;;;;91.57;42.25;;;5.40;99.90;;;;;;5090178;28;20048;-66
2021/12/04 14:46:09;;;;;;;78.28;40.05;;;5.40;99.90;;;;;;5056400;28;20060;-66
2021/12/04 14:48:38;;;;;;;80.05;38.50;;;5.40;99.90;;;;;;5057414;28;20041;-66
2021/12/04 14:51:13;;;;;;;82.97;39.50;;;5.30;99.90;;;;;;5057128;28;20157;-66
2021/12/04 14:53:47;;;;;;;70.55;36.83;;;5.40;99.90;;;;;;5055672;28;20040;-66
2021/12/04 14:56:14;;;;;;;73.72;38.45;;;5.40;99.90;;;;;;5057591;28;21086;-66
2021/12/04 14:58:40;;;;;;;79.20;39.47;;;5.40;99.90;;;;;;5094730;28;20119;-66
2021/12/04 15:01:10;;;;;;;77.00;38.08;;;5.40;99.90;;;;;;5059524;28;20033;-66
2021/12/04 15:03:43;;;;;;;71.47;39.10;;;5.40;99.90;;;;;;5058518;28;20032;-66
2021/12/04 15:06:12;;;;;;;73.80;37.45;;;5.40;99.90;;;;;;5058127;28;20140;-66
2021/12/04 15:08:46;;;;;;;77.00;39.72;;;5.40;99.90;;;;;;5060361;28;20075;-66
2021/12/04 15:11:18;;;;;;;79.03;37.28;;;5.40;99.90;;;;;;5059492;28;22139;-66
2021/12/04 15:13:53;;;;;;;81.57;37.92;;;5.40;99.90;;;;;;5058712;28;21105;-66
2021/12/04 15:16:28;;;;;;;68.63;36.80;;;5.40;99.90;;;;;;5056421;28;20122;-66
2021/12/04 15:19:04;;;;;;;;;;;5.40;99.90;;;;;;5059460;28;20616;-66
2021/12/04 15:21:36;;;;;;;76.15;39.28;;;5.40;99.90;;;;;;5057558;28;20142;-66
2021/12/04 15:24:01;;;;;;;76.93;38.75;;;5.30;99.90;;;;;;5058393;28;20036;-66
2021/12/04 15:26:27;;;;;;;75.47;37.65;;;5.40;99.90;;;;;;5059116;28;20040;-66
2021/12/04 15:28:55;;;;;;;72.50;38.28;;;5.40;99.90;;;;;;5057363;28;20510;-66
2021/12/04 15:31:23;;;;;;;83.80;37.60;;;5.40;99.90;;;;;;5054414;28;20055;-66
2021/12/04 15:33:54;;;;;;;84.80;39.85;;;5.40;99.90;;;;;;5059605;28;20138;-66
2021/12/04 15:36:23;;;;;;;72.28;39.03;;;5.40;99.90;;;;;;5056833;28;20503;-66
2021/12/04 15:38:54;;;;;;;75.78;39.28;;;5.40;99.90;;;;;;5059912;28;20588;-66
2021/12/04 15:42:08;;;;;;;82.38;37.83;;;5.40;99.90;;;;;;5057752;28;20155;-66
2021/12/04 15:44:46;;;;;;;90.55;39.88;;;5.40;99.90;;;;;;5061148;28;20117;-66
2021/12/04 15:47:27;;;;;;;76.60;39.30;;;5.40;99.90;;;;;;5057375;28;20036;-66
2021/12/04 15:53:11;;;;;;;79.07;41.55;;;5.40;99.90;;;;;;5052040;28;20048;-64
2021/12/04 15:55:42;;;;;;;91.25;43.40;;;5.40;99.90;;;;;;5057686;28;20055;-64
2021/12/04 15:58:15;;;;;;;79.22;41.08;;;5.50;99.90;;;;;;5054145;28;20836;-63
2021/12/04 16:00:49;;;;;;;86.50;40.30;;;5.50;99.90;;;;;;5063373;28;20044;-64